Time;durP1;ratioP1;P1;durP2;ratioP2;P2;SDS_P1;SDS_P2;PMS_P1;PMS_P2;Temp;Humidity;BMP_temperature;BMP_pressure;BME280_temperature;BME280_humidity;BME280_pressure;Samples;Min_cycle;Max_cycle;Signal;HPM_P1;HPM_P2
2021/09/17 00:01:52;;;;;;;17.70;9.30;;;;;;;17.57;49.46;100702.64;117385;1185;23535;-62
2021/09/17 00:04:20;;;;;;;17.00;8.70;;;;;;;17.51;49.47;100701.06;117359;1184;21857;-62
2021/09/17 00:06:50;;;;;;;12.20;6.60;;;;;;;17.47;49.58;100696.42;117423;1185;23551;-62
2021/09/17 00:09:20;;;;;;;;;;;;;;;17.47;49.54;100697.65;117492;1185;22930;-61
2021/09/17 00:11:50;;;;;;;10.20;5.20;;;;;;;17.47;49.71;100693.05;117387;1185;23547;-62
2021/09/17 00:14:38;;;;;;;7.40;4.40;;;;;;;17.52;49.77;100687.91;117263;1186;21855;-62
2021/09/17 00:17:06;;;;;;;7.00;4.00;;;;;;;17.55;49.91;100682.84;117286;1183;21855;-62
2021/09/17 00:19:47;;;;;;;7.80;3.90;;;;;;;17.56;49.79;100677.67;117312;1182;23548;-62
2021/09/17 00:22:15;;;;;;;7.30;4.10;;;;;;;17.54;50.06;100675.40;117346;1183;23569;-62
2021/09/17 00:24:44;;;;;;;8.80;4.50;;;;;;;17.57;50.05;100671.43;117306;1184;23569;-62
2021/09/17 00:27:32;;;;;;;8.20;5.40;;;;;;;17.59;50.17;100670.65;117441;1184;23554;-62
2021/09/17 00:30:01;;;;;;;12.20;5.80;;;;;;;17.58;50.29;100669.42;117417;1185;23547;-62
2021/09/17 00:32:29;;;;;;;11.00;6.10;;;;;;;17.60;50.19;100666.19;117341;1184;23432;-62
2021/09/17 00:34:58;;;;;;;13.40;6.60;;;;;;;17.60;50.16;100665.27;117349;1183;22940;-62
2021/09/17 00:37:27;;;;;;;13.00;6.30;;;;;;;17.61;50.19;100659.21;117389;1184;23570;-62
2021/09/17 00:39:55;;;;;;;9.00;5.90;;;;;;;17.63;50.18;100656.84;117361;1183;23558;-62
2021/09/17 00:42:23;;;;;;;12.30;5.70;;;;;;;17.65;50.39;100650.90;117338;1184;21868;-62
2021/09/17 00:44:51;;;;;;;10.60;6.00;;;;;;;17.67;50.37;100650.09;117286;1182;21860;-63
2021/09/17 00:47:20;;;;;;;9.80;5.80;;;;;;;17.70;50.39;100645.55;117343;1185;23469;-62
2021/09/17 00:49:49;;;;;;;8.70;5.40;;;;;;;17.72;50.49;100648.52;117315;1183;23570;-62
2021/09/17 00:52:20;;;;;;;11.90;5.70;;;;;;;17.72;50.42;100640.70;117347;1185;23570;-62
2021/09/17 00:54:48;;;;;;;8.50;5.60;;;;;;;17.71;50.35;100637.55;117287;1185;21856;-62
2021/09/17 00:57:16;;;;;;;7.20;5.50;;;;;;;17.70;50.28;100631.89;117330;1185;21860;-62
2021/09/17 00:59:44;;;;;;;10.00;5.60;;;;;;;17.72;50.27;100630.94;117272;1184;22017;-62
2021/09/17 01:02:13;;;;;;;10.80;5.70;;;;;;;17.62;50.32;100630.77;117343;1184;23566;-62
2021/09/17 01:04:42;;;;;;;10.50;5.20;;;;;;;17.55;50.46;100628.56;117331;1183;23659;-62
2021/09/17 01:07:30;;;;;;;11.10;5.90;;;;;;;17.48;50.37;100627.39;117339;1184;22982;-62
2021/09/17 01:09:59;;;;;;;8.90;5.60;;;;;;;17.42;50.41;100623.37;117407;1185;23466;-62
2021/09/17 01:12:29;;;;;;;13.50;5.60;;;;;;;17.37;50.58;100619.62;117045;1183;23588;-62
2021/09/17 01:14:57;;;;;;;10.80;5.80;;;;;;;17.34;50.64;100618.69;117367;1182;23560;-62
2021/09/17 01:17:37;;;;;;;7.90;5.20;;;;;;;17.34;50.48;100614.79;117140;1186;21919;-62
2021/09/17 01:20:07;;;;;;;8.10;4.60;;;;;;;17.32;50.49;100613.06;117390;1184;22916;-62
2021/09/17 01:22:35;;;;;;;8.40;4.80;;;;;;;17.32;50.68;100610.75;117354;1182;22613;-62
2021/09/17 01:25:24;;;;;;;7.30;4.20;;;;;;;17.39;50.68;100606.27;117323;1185;23539;-62
2021/09/17 01:28:12;;;;;;;11.10;4.40;;;;;;;17.38;50.83;100602.55;117321;1185;21858;-62
2021/09/17 01:31:01;;;;;;;10.00;4.40;;;;;;;17.42;50.88;100602.44;117302;1185;21858;-62
2021/09/17 01:33:42;;;;;;;7.30;4.60;;;;;;;17.46;50.97;100601.73;117320;1185;23545;-62
2021/09/17 01:36:10;;;;;;;6.80;4.10;;;;;;;17.50;50.86;100599.27;117306;1184;23442;-62
2021/09/17 01:38:40;;;;;;;7.30;4.10;;;;;;;17.53;50.96;100597.03;117456;1184;21914;-62
2021/09/17 01:41:09;;;;;;;6.50;3.80;;;;;;;17.56;50.92;100594.98;117282;1185;21854;-62
2021/09/17 01:43:38;;;;;;;7.90;4.40;;;;;;;17.60;50.99;100595.55;117540;1184;23248;-62
2021/09/17 01:46:09;;;;;;;7.00;3.70;;;;;;;17.64;50.98;100591.50;117441;1183;23566;-62
2021/09/17 01:48:37;;;;;;;7.50;3.50;;;;;;;17.69;50.96;100590.78;117305;1183;22301;-62
2021/09/17 01:51:24;;;;;;;7.90;3.90;;;;;;;17.72;51.11;100587.45;117319;1182;23647;-62
2021/09/17 01:54:13;;;;;;;6.80;3.50;;;;;;;17.75;51.15;100582.39;117320;1185;24201;-62
2021/09/17 01:56:41;;;;;;;9.80;3.90;;;;;;;17.79;51.18;100581.32;117396;1184;23547;-63
2021/09/17 01:59:09;;;;;;;5.20;3.40;;;;;;;17.84;51.25;100577.41;117425;1185;23534;-62
2021/09/17 02:01:38;;;;;;;5.40;3.70;;;;;;;17.88;51.21;100573.16;117192;1187;22463;-62
2021/09/17 02:04:07;;;;;;;5.60;3.10;;;;;;;17.91;51.21;100571.29;117397;1185;23541;-62
2021/09/17 02:06:35;;;;;;;8.70;3.60;;;;;;;17.95;51.32;100570.23;117344;1183;24226;-62
2021/09/17 02:09:23;;;;;;;9.10;3.60;;;;;;;18.01;51.29;100566.10;117335;1185;23700;-62
2021/09/17 02:11:53;;;;;;;7.70;3.70;;;;;;;18.05;51.25;100564.72;117390;1185;23640;-62
2021/09/17 02:14:34;;;;;;;7.70;3.40;;;;;;;18.10;51.22;100559.20;117268;1186;23567;-62
2021/09/17 02:17:06;;;;;;;10.50;4.00;;;;;;;18.13;51.24;100559.41;117337;1185;23544;-62
2021/09/17 02:19:35;;;;;;;23.30;4.30;;;;;;;18.14;51.30;100557.06;117425;1185;23569;-62
2021/09/17 02:22:05;;;;;;;7.00;3.40;;;;;;;18.16;51.23;100556.30;117373;1184;22915;-62
2021/09/17 02:24:34;;;;;;;10.00;4.00;;;;;;;18.18;51.30;100558.69;117446;1182;23560;-62
2021/09/17 02:27:03;;;;;;;10.60;3.50;;;;;;;18.20;51.22;100554.68;117316;1184;21855;-62
2021/09/17 02:29:31;;;;;;;8.50;3.40;;;;;;;18.22;51.31;100553.36;117366;1185;23567;-62
2021/09/17 02:31:59;;;;;;;7.60;3.40;;;;;;;18.23;51.35;100553.85;117407;1182;24155;-62
2021/09/17 02:34:27;;;;;;;8.50;3.90;;;;;;;18.25;51.30;100552.88;117327;1185;23560;-61
2021/09/17 02:36:55;;;;;;;6.70;3.70;;;;;;;18.29;51.35;100551.85;117289;1185;21859;-62
2021/09/17 02:39:23;;;;;;;4.90;3.00;;;;;;;18.30;51.38;100549.84;117351;1185;21862;-62
2021/09/17 02:41:52;;;;;;;8.40;3.30;;;;;;;18.34;51.40;100553.73;117410;1182;21861;-62
2021/09/17 02:44:21;;;;;;;7.80;3.60;;;;;;;18.35;51.44;100554.97;117212;1185;23572;-62
2021/09/17 02:46:49;;;;;;;9.70;4.00;;;;;;;18.38;51.40;100554.64;117406;1185;22356;-62
2021/09/17 02:49:19;;;;;;;5.60;4.00;;;;;;;18.41;51.35;100555.27;117277;1184;23647;-62
2021/09/17 02:51:51;;;;;;;7.00;3.80;;;;;;;18.42;51.48;100552.91;117319;1184;23566;-62
2021/09/17 02:54:19;;;;;;;11.70;3.90;;;;;;;18.45;51.41;100549.77;117292;1182;21857;-61
2021/09/17 02:56:47;;;;;;;7.30;4.10;;;;;;;18.45;51.46;100543.52;117345;1184;21940;-62
2021/09/17 02:59:17;;;;;;;6.10;4.10;;;;;;;18.44;51.46;100543.95;117342;1184;21853;-62
2021/09/17 03:01:46;;;;;;;6.60;4.10;;;;;;;18.44;51.43;100538.25;117377;1185;23544;-62
2021/09/17 03:04:16;;;;;;;9.10;5.70;;;;;;;18.43;51.40;100536.70;117365;1183;23556;-62
2021/09/17 03:06:44;;;;;;;6.60;4.20;;;;;;;18.42;51.40;100537.59;117330;1185;23590;-62
2021/09/17 03:09:12;;;;;;;10.00;4.40;;;;;;;18.42;51.41;100534.92;117244;1186;22841;-62
2021/09/17 03:11:41;;;;;;;11.10;4.30;;;;;;;18.43;51.37;100534.04;117389;1184;23613;-62
2021/09/17 03:14:10;;;;;;;6.10;4.30;;;;;;;18.42;51.38;100535.83;117377;1185;21904;-62
2021/09/17 03:16:38;;;;;;;9.80;4.70;;;;;;;18.41;51.42;100536.05;117449;1185;21855;-62
2021/09/17 03:19:08;;;;;;;7.00;4.40;;;;;;;18.41;51.41;100532.12;117300;1185;23576;-62
2021/09/17 03:21:41;;;;;;;11.70;4.30;;;;;;;18.42;51.43;100534.05;117318;1186;23547;-62
2021/09/17 03:24:09;;;;;;;11.70;4.50;;;;;;;18.42;51.45;100534.25;117352;1185;21856;-62
2021/09/17 03:26:57;;;;;;;10.60;5.40;;;;;;;18.41;51.49;100532.31;117342;1185;22906;-62
2021/09/17 03:29:25;;;;;;;9.20;5.10;;;;;;;18.42;51.51;100531.77;117400;1182;23816;-62
2021/09/17 03:31:54;;;;;;;8.90;4.90;;;;;;;18.48;51.39;100527.80;117275;1187;21861;-62
2021/09/17 03:34:22;;;;;;;8.90;4.90;;;;;;;18.41;51.56;100528.42;117374;1185;23547;-62
2021/09/17 03:36:50;;;;;;;8.70;4.80;;;;;;;18.41;51.53;100530.55;117297;1180;22917;-62
2021/09/17 03:39:18;;;;;;;13.30;5.90;;;;;;;18.42;51.62;100531.56;117319;1185;21982;-62
2021/09/17 03:41:46;;;;;;;9.30;5.30;;;;;;;18.43;51.55;100533.48;117275;1183;23446;-61
2021/09/17 03:44:15;;;;;;;9.70;5.40;;;;;;;18.46;51.61;100530.34;117340;1185;21855;-62
2021/09/17 03:46:43;;;;;;;11.20;5.30;;;;;;;18.47;51.56;100533.52;117429;1183;23535;-62
2021/09/17 03:49:11;;;;;;;10.80;5.40;;;;;;;18.45;51.66;100533.77;117325;1185;23546;-62
2021/09/17 03:51:44;;;;;;;15.10;6.20;;;;;;;18.43;51.58;100535.61;117287;1184;23547;-61
2021/09/17 03:54:12;;;;;;;10.10;6.10;;;;;;;18.43;51.65;100532.59;117354;1184;23544;-62
2021/09/17 03:56:40;;;;;;;10.70;5.70;;;;;;;18.44;51.68;100536.63;117391;1183;24154;-61
2021/09/17 03:59:09;;;;;;;11.20;5.90;;;;;;;18.46;51.73;100531.24;117321;1184;23561;-62
2021/09/17 04:01:37;;;;;;;9.30;4.90;;;;;;;18.47;51.71;100527.13;117298;1185;21855;-61
2021/09/17 04:04:05;;;;;;;8.50;5.60;;;;;;;18.46;51.74;100525.02;117315;1185;22645;-62
2021/09/17 04:06:33;;;;;;;9.50;4.90;;;;;;;18.47;51.78;100523.76;117325;1185;23544;-61
2021/09/17 04:09:02;;;;;;;10.10;5.30;;;;;;;18.48;51.77;100520.13;118381;1184;23566;-60
2021/09/17 04:11:31;;;;;;;11.70;5.30;;;;;;;18.50;51.89;100520.75;117438;1185;22205;-61
2021/09/17 04:13:59;;;;;;;7.70;4.70;;;;;;;18.52;51.95;100522.98;117418;1180;22915;-62
2021/09/17 04:16:27;;;;;;;9.70;4.70;;;;;;;18.55;51.92;100518.59;117379;1185;23348;-61
2021/09/17 04:18:57;;;;;;;11.40;5.80;;;;;;;18.57;51.89;100517.39;117360;1185;23646;-62
2021/09/17 04:21:27;;;;;;;12.40;5.90;;;;;;;18.59;52.02;100515.38;117356;1184;24165;-61
2021/09/17 04:23:55;;;;;;;7.80;4.70;;;;;;;18.62;52.06;100514.91;117795;1176;23469;-61
2021/09/17 04:26:24;;;;;;;7.20;4.70;;;;;;;18.65;52.00;100510.52;117352;1185;23560;-62
2021/09/17 04:28:53;;;;;;;8.20;5.00;;;;;;;18.68;52.14;100515.16;117409;1185;23569;-61
2021/09/17 04:31:22;;;;;;;10.00;5.90;;;;;;;18.72;52.17;100516.05;117412;1185;23557;-61
2021/09/17 04:33:50;;;;;;;12.30;5.50;;;;;;;18.73;52.24;100515.86;117343;1185;21859;-62
2021/09/17 04:36:18;;;;;;;8.60;5.40;;;;;;;18.75;52.23;100519.15;117325;1184;21928;-62
2021/09/17 04:38:47;;;;;;;11.40;5.50;;;;;;;18.78;52.26;100522.73;117392;1185;23569;-61
2021/09/17 04:41:15;;;;;;;9.50;5.70;;;;;;;18.81;52.29;100523.85;117346;1185;23547;-61
2021/09/17 04:43:45;;;;;;;15.30;5.70;;;;;;;18.83;52.23;100522.16;117314;1185;23573;-61
2021/09/17 04:46:16;;;;;;;10.50;5.40;;;;;;;18.85;52.20;100518.54;117330;1185;22133;-61
2021/09/17 04:48:44;;;;;;;10.00;5.60;;;;;;;18.86;52.25;100514.19;117407;1180;22910;-61
2021/09/17 04:51:12;;;;;;;13.50;6.40;;;;;;;18.89;52.32;100510.54;117332;1184;23547;-61
2021/09/17 04:53:42;;;;;;;10.90;6.30;;;;;;;18.92;52.33;100503.83;117375;1185;23547;-61
2021/09/17 04:56:10;;;;;;;9.90;5.80;;;;;;;18.97;52.43;100503.09;117426;1184;21852;-61
2021/09/17 04:58:44;;;;;;;13.40;6.80;;;;;;;19.04;52.37;100507.91;117387;1184;21860;-61
2021/09/17 05:01:12;;;;;;;9.40;6.50;;;;;;;19.11;52.48;100509.76;117484;1185;21868;-61
2021/09/17 05:03:41;;;;;;;11.00;7.90;;;;;;;19.19;52.49;100506.73;117308;1184;21850;-62
2021/09/17 05:06:10;;;;;;;11.80;7.20;;;;;;;19.33;52.58;100501.62;117273;1182;23544;-62
2021/09/17 05:08:38;;;;;;;12.30;6.70;;;;;;;19.44;52.66;100499.85;117411;1185;22617;-62
2021/09/17 05:11:06;;;;;;;14.30;6.80;;;;;;;19.57;52.70;100498.16;117353;1184;22932;-62
2021/09/17 05:13:35;;;;;;;11.00;6.70;;;;;;;19.71;52.77;100499.98;117310;1184;23443;-62
2021/09/17 05:16:03;;;;;;;11.50;5.90;;;;;;;19.85;52.79;100499.18;117352;1185;21856;-62
2021/09/17 05:18:31;;;;;;;11.80;6.10;;;;;;;19.99;52.80;100496.16;117362;1185;21855;-62
2021/09/17 05:21:00;;;;;;;12.20;6.40;;;;;;;20.15;52.90;100496.29;117443;1184;22808;-62
2021/09/17 05:23:40;;;;;;;11.20;5.50;;;;;;;20.30;52.86;100497.12;117340;1184;23567;-62
2021/09/17 05:26:11;;;;;;;15.50;5.70;;;;;;;20.45;52.89;100498.30;117347;1181;21998;-63
2021/09/17 05:28:59;;;;;;;8.10;5.00;;;;;;;20.60;52.89;100495.39;117354;1185;21845;-63
2021/09/17 05:31:27;;;;;;;8.60;4.70;;;;;;;20.73;52.95;100497.23;117237;1186;23548;-63
2021/09/17 05:33:56;;;;;;;6.90;5.10;;;;;;;20.89;52.88;100495.86;117343;1183;23569;-63
2021/09/17 05:36:24;;;;;;;12.20;4.30;;;;;;;21.09;52.81;100495.69;117328;1185;21858;-64
2021/09/17 05:38:52;;;;;;;7.90;3.80;;;;;;;21.24;52.84;100493.77;117456;1184;23589;-64
2021/09/17 05:41:20;;;;;;;6.80;4.00;;;;;;;21.37;52.80;100490.39;117371;1185;23545;-64
2021/09/17 05:44:08;;;;;;;9.70;4.90;;;;;;;21.53;52.82;100483.64;117330;1186;22157;-64
2021/09/17 05:46:37;;;;;;;6.80;3.50;;;;;;;21.68;52.83;100484.07;117308;1185;21899;-64
2021/09/17 05:49:09;;;;;;;8.00;3.40;;;;;;;21.84;52.93;100482.46;117359;1184;23569;-64
2021/09/17 05:51:51;;;;;;;6.30;3.70;;;;;;;22.03;52.86;100480.14;117310;1184;23589;-64
2021/09/17 05:54:19;;;;;;;11.10;3.20;;;;;;;22.18;52.91;100477.80;117370;1185;23538;-65
2021/09/17 05:56:47;;;;;;;8.70;3.00;;;;;;;22.34;52.89;100478.84;117330;1185;22998;-65
2021/09/17 05:59:16;;;;;;;8.50;3.10;;;;;;;22.48;52.90;100474.80;117454;1185;21922;-62
2021/09/17 06:01:44;;;;;;;5.90;3.10;;;;;;;22.62;53.11;100472.88;117375;1185;22916;-62
2021/09/17 06:04:33;;;;;;;8.00;2.70;;;;;;;22.84;53.20;100464.90;117325;1185;21856;-63
2021/09/17 06:07:01;;;;;;;4.60;2.50;;;;;;;23.05;53.08;100465.42;117396;1184;23564;-63
2021/09/17 06:09:29;;;;;;;6.20;2.90;;;;;;;23.25;52.94;100464.89;117407;1181;23560;-66
2021/09/17 06:12:04;;;;;;;9.00;3.00;;;;;;;23.44;52.91;100461.83;117353;1179;23541;-63
2021/09/17 06:14:33;;;;;;;6.60;2.20;;;;;;;23.64;52.88;100460.56;117418;1184;21863;-63
2021/09/17 06:17:21;;;;;;;6.60;2.70;;;;;;;23.79;53.00;100456.36;117377;1185;21857;-64
2021/09/17 06:19:52;;;;;;;6.60;2.40;;;;;;;23.99;53.00;100454.12;117253;1187;23541;-65
2021/09/17 06:22:20;;;;;;;9.10;2.60;;;;;;;24.18;53.04;100451.80;117371;1184;23465;-64
2021/09/17 06:24:49;;;;;;;9.50;2.70;;;;;;;24.35;53.06;100449.91;117356;1185;23570;-65
2021/09/17 06:27:18;;;;;;;6.10;2.10;;;;;;;24.50;52.91;100449.43;117386;1185;23569;-65
2021/09/17 06:29:48;;;;;;;12.30;2.40;;;;;;;24.62;52.94;100444.28;117253;1186;23579;-66
2021/09/17 06:32:16;;;;;;;7.30;2.40;;;;;;;24.79;52.80;100448.35;117356;1186;23547;-63
2021/09/17 06:34:46;;;;;;;4.50;2.10;;;;;;;24.89;52.74;100451.43;117308;1178;21854;-65
2021/09/17 06:37:14;;;;;;;7.30;2.10;;;;;;;24.99;52.73;100451.61;117328;1185;23548;-63
2021/09/17 06:39:46;;;;;;;7.80;2.50;;;;;;;25.07;52.63;100447.80;117321;1185;21854;-65
2021/09/17 06:42:14;;;;;;;7.60;3.00;;;;;;;25.11;52.46;100443.34;117305;1185;21856;-64
2021/09/17 06:44:43;;;;;;;15.80;3.10;;;;;;;25.14;52.63;100443.86;117331;1185;23538;-66
2021/09/17 06:47:12;;;;;;;4.20;2.70;;;;;;;25.18;52.65;100439.81;117310;1186;23547;-65
2021/09/17 06:49:40;;;;;;;5.80;2.60;;;;;;;25.25;52.69;100434.63;117387;1185;21888;-66
2021/09/17 06:52:08;;;;;;;9.80;2.90;;;;;;;25.39;52.63;100436.89;117408;1183;23567;-66
2021/09/17 06:54:38;;;;;;;5.60;2.70;;;;;;;25.50;52.69;100435.92;117371;1182;23598;-64
2021/09/17 06:57:26;;;;;;;12.70;3.40;;;;;;;25.59;52.64;100433.04;117306;1180;23320;-66
2021/09/17 06:59:54;;;;;;;7.40;2.80;;;;;;;25.77;52.64;100433.51;117427;1183;23536;-65
2021/09/17 07:02:23;;;;;;;9.40;3.70;;;;;;;25.97;52.74;100432.40;117389;1183;23544;-64
2021/09/17 07:04:52;;;;;;;7.90;2.20;;;;;;;26.18;52.80;100427.73;117416;1185;21905;-68
2021/09/17 07:07:20;;;;;;;8.70;2.20;;;;;;;26.38;52.81;100427.98;117439;1185;21918;-63
2021/09/17 07:09:50;;;;;;;4.70;2.20;;;;;;;26.55;52.74;100425.64;117429;1184;23570;-63
2021/09/17 07:12:18;;;;;;;6.00;2.60;;;;;;;26.77;52.58;100425.17;117417;1188;23544;-63
2021/09/17 07:14:47;;;;;;;9.90;2.50;;;;;;;26.92;52.57;100426.19;117391;1183;23546;-65
2021/09/17 07:17:15;;;;;;;7.30;2.30;;;;;;;27.01;52.80;100424.54;117413;1182;21864;-63
2021/09/17 07:19:45;;;;;;;15.90;3.70;;;;;;;27.09;52.80;100423.02;117386;1184;21847;-65
2021/09/17 07:22:13;;;;;;;9.70;2.60;;;;;;;27.30;52.57;100418.07;117371;1184;21898;-65
2021/09/17 07:24:41;;;;;;;8.70;2.90;;;;;;;27.42;52.42;100415.77;117327;1184;23547;-65
2021/09/17 07:27:10;;;;;;;10.80;2.80;;;;;;;27.55;52.31;100415.09;117441;1185;23544;-64
2021/09/17 07:29:39;;;;;;;8.50;2.90;;;;;;;27.66;52.25;100413.50;117398;1185;24623;-65
2021/09/17 07:32:07;;;;;;;10.60;2.50;;;;;;;27.77;52.33;100412.15;117424;1185;21884;-69
2021/09/17 07:34:35;;;;;;;6.50;2.80;;;;;;;27.91;52.42;100404.91;117319;1184;23699;-65
2021/09/17 07:37:04;;;;;;;39.90;6.10;;;;;;;28.10;52.40;100403.11;117391;1185;22477;-67
2021/09/17 07:39:34;;;;;;;4.60;2.70;;;;;;;28.24;52.44;100397.45;117343;1185;21867;-66
2021/09/17 07:42:02;;;;;;;11.10;2.50;;;;;;;28.38;52.27;100394.27;117486;1184;21857;-68
2021/09/17 07:44:32;;;;;;;8.00;2.90;;;;;;;28.49;52.24;100395.40;117438;1185;21897;-64
2021/09/17 07:47:01;;;;;;;6.00;2.40;;;;;;;28.60;52.12;100396.13;117505;1185;21855;-65
2021/09/17 07:49:29;;;;;;;6.70;2.70;;;;;;;28.71;52.19;100394.61;117391;1182;23469;-65
2021/09/17 07:51:57;;;;;;;9.70;2.70;;;;;;;28.81;51.90;100396.44;117334;1185;21857;-64
2021/09/17 07:54:27;;;;;;;5.30;2.70;;;;;;;28.91;51.97;100401.88;117337;1185;23560;-65
2021/09/17 07:56:55;;;;;;;9.40;2.60;;;;;;;29.03;52.05;100401.75;117356;1185;21911;-66
2021/09/17 07:59:27;;;;;;;5.60;2.50;;;;;;;29.15;51.93;100398.82;117418;1185;23812;-66
2021/09/17 08:01:55;;;;;;;23.90;3.20;;;;;;;29.29;52.05;100396.08;117404;1185;23544;-67
2021/09/17 08:04:24;;;;;;;16.70;2.90;;;;;;;29.41;51.91;100396.54;117369;1182;23542;-66
2021/09/17 08:06:52;;;;;;;6.10;2.30;;;;;;;29.44;51.93;100393.13;117301;1185;21855;-65
2021/09/17 08:09:21;;;;;;;11.70;2.60;;;;;;;29.50;51.95;100391.72;117325;1185;23631;-65
2021/09/17 08:11:49;;;;;;;7.20;2.80;;;;;;;29.51;51.82;100388.56;117305;1188;23548;-64
2021/09/17 08:14:18;;;;;;;13.20;3.10;;;;;;;29.51;51.70;100381.33;117373;1186;23560;-65
2021/09/17 08:16:46;;;;;;;7.00;3.00;;;;;;;29.48;51.83;100380.16;117312;1184;21863;-64
2021/09/17 08:19:15;;;;;;;4.30;2.30;;;;;;;29.53;51.86;100373.20;117395;1185;23547;-65
2021/09/17 08:21:43;;;;;;;8.90;2.70;;;;;;;29.58;51.63;100371.32;117329;1182;23569;-63
2021/09/17 08:24:18;;;;;;;7.40;3.00;;;;;;;29.59;51.80;100370.09;117413;1184;23461;-64
2021/09/17 08:26:51;;;;;;;9.60;2.80;;;;;;;29.61;51.75;100366.85;117356;1184;21861;-66
2021/09/17 08:29:19;;;;;;;6.50;3.00;;;;;;;29.67;51.90;100365.00;117368;1185;21860;-66
2021/09/17 08:31:49;;;;;;;6.70;3.10;;;;;;;29.73;51.74;100367.52;117361;1185;23813;-65
2021/09/17 08:34:17;;;;;;;7.50;2.90;;;;;;;29.79;51.75;100364.05;117333;1186;23442;-63
2021/09/17 08:36:46;;;;;;;6.80;2.90;;;;;;;29.87;51.84;100359.36;117387;1182;23573;-64
2021/09/17 08:39:15;;;;;;;6.30;3.20;;;;;;;29.97;51.96;100356.48;117465;1185;24003;-64
2021/09/17 08:41:44;;;;;;;5.50;2.40;;;;;;;30.07;52.03;100348.46;117338;1188;23560;-63
2021/09/17 08:44:14;;;;;;;6.30;2.40;;;;;;;30.25;52.04;100346.05;117339;1185;23519;-64
2021/09/17 08:46:43;;;;;;;4.60;2.70;;;;;;;30.37;51.78;100343.94;117384;1185;23548;-64
2021/09/17 08:49:11;;;;;;;5.70;2.80;;;;;;;30.41;51.72;100339.02;117432;1184;22695;-63
2021/09/17 08:51:40;;;;;;;8.10;2.50;;;;;;;30.44;51.69;100335.02;117449;1184;23548;-65
2021/09/17 08:54:08;;;;;;;23.50;4.80;;;;;;;30.58;51.98;100337.95;117372;1185;23544;-64
2021/09/17 08:56:36;;;;;;;8.70;3.30;;;;;;;30.72;51.75;100336.79;117342;1184;23557;-66
2021/09/17 08:59:05;;;;;;;5.80;3.30;;;;;;;30.86;51.47;100331.41;117413;1183;21883;-63
2021/09/17 09:01:36;;;;;;;4.70;2.70;;;;;;;30.98;51.39;100326.85;117365;1184;23545;-66
2021/09/17 09:04:07;;;;;;;12.10;3.40;;;;;;;31.09;51.40;100329.59;117352;1185;21852;-64
2021/09/17 09:06:39;;;;;;;9.30;2.90;;;;;;;31.15;51.28;100329.48;117394;1184;22937;-64
2021/09/17 09:09:21;;;;;;;8.60;3.20;;;;;;;31.11;51.03;100330.60;117385;1185;21861;-65
2021/09/17 09:12:09;;;;;;;21.60;4.60;;;;;;;31.05;51.03;100329.06;117324;1182;23621;-65
2021/09/17 09:14:37;;;;;;;6.80;3.10;;;;;;;30.93;51.18;100323.73;117333;1185;21856;-63
2021/09/17 09:17:09;;;;;;;6.70;3.10;;;;;;;30.90;51.25;100322.92;117431;1186;23557;-66
2021/09/17 09:19:38;;;;;;;9.40;3.80;;;;;;;30.92;51.37;100321.11;117396;1185;23576;-64
2021/09/17 09:22:06;;;;;;;9.20;3.10;;;;;;;30.99;51.53;100322.76;117372;1184;22909;-63
2021/09/17 09:24:41;;;;;;;8.70;3.50;;;;;;;31.14;51.61;100315.11;117385;1185;21845;-66
2021/09/17 09:27:13;;;;;;;12.50;3.50;;;;;;;31.34;51.77;100316.25;117265;1185;24159;-70
2021/09/17 09:29:43;;;;;;;11.80;3.50;;;;;;;31.40;51.46;100314.14;117386;1183;21908;-63
2021/09/17 09:32:24;;;;;;;56.20;9.90;;;;;;;31.37;51.18;100312.31;117369;1184;23441;-64
2021/09/17 09:34:56;;;;;;;8.70;3.50;;;;;;;31.36;51.15;100305.44;117459;1182;22914;-64
2021/09/17 09:37:36;;;;;;;9.80;3.60;;;;;;;31.46;51.19;100307.08;117357;1184;21897;-68
2021/09/17 09:40:16;;;;;;;6.40;3.00;;;;;;;31.57;51.27;100304.08;117349;1185;21901;-64
2021/09/17 09:42:46;;;;;;;11.30;3.30;;;;;;;31.84;51.03;100299.39;117387;1184;23547;-70
2021/09/17 09:45:23;;;;;;;10.20;3.10;;;;;;;31.94;50.70;100295.45;117262;1185;23550;-68
2021/09/17 09:47:53;;;;;;;8.00;3.50;;;;;;;31.88;50.68;100300.41;117249;1186;21845;-65
2021/09/17 09:50:28;;;;;;;10.20;3.70;;;;;;;31.75;50.88;100296.11;117399;1186;22096;-65
2021/09/17 09:53:02;;;;;;;8.70;2.80;;;;;;;31.71;51.06;100294.27;117354;1185;24255;-66
2021/09/17 09:55:30;;;;;;;6.50;3.10;;;;;;;31.75;51.04;100290.80;117444;1185;23548;-65
2021/09/17 09:57:59;;;;;;;8.70;3.50;;;;;;;31.82;50.99;100298.13;117400;1188;23547;-64
2021/09/17 10:00:27;;;;;;;7.30;3.60;;;;;;;31.91;50.77;100291.04;117367;1182;24140;-69
2021/09/17 10:02:56;;;;;;;6.80;3.10;;;;;;;31.99;50.66;100285.23;117404;1185;23538;-68
2021/09/17 10:05:30;;;;;;;12.60;3.30;;;;;;;32.02;50.62;100290.55;117289;1186;22961;-68
2021/09/17 10:07:59;;;;;;;5.80;2.90;;;;;;;31.99;50.44;100290.02;117393;1185;22168;-70
2021/09/17 10:10:27;;;;;;;10.20;3.30;;;;;;;31.88;50.33;100289.39;117098;1188;21867;-69
2021/09/17 10:13:15;;;;;;;13.60;3.20;;;;;;;31.79;50.49;100285.93;117351;1185;21848;-68
2021/09/17 10:15:43;;;;;;;8.40;3.20;;;;;;;31.74;50.51;100286.58;117328;1186;23826;-66
2021/09/17 10:18:15;;;;;;;8.70;3.50;;;;;;;31.72;50.54;100280.40;117316;1186;23535;-73
2021/09/17 10:20:44;;;;;;;9.00;3.30;;;;;;;31.77;50.55;100275.39;117398;1184;21883;-66
2021/09/17 10:23:27;;;;;;;8.90;3.10;;;;;;;31.81;50.60;100271.22;117393;1185;21851;-68
2021/09/17 10:26:04;;;;;;;7.00;3.40;;;;;;;31.84;50.57;100262.94;117320;1183;23279;-65
2021/09/17 10:28:33;;;;;;;9.60;3.60;;;;;;;31.82;50.54;100267.45;117943;1182;24284;-71
2021/09/17 10:31:13;;;;;;;4.60;3.20;;;;;;;31.81;50.51;100263.02;117398;1186;21941;-66
2021/09/17 10:33:41;;;;;;;11.50;3.70;;;;;;;31.82;50.70;100258.20;117425;1182;22925;-66
2021/09/17 10:36:11;;;;;;;6.10;3.50;;;;;;;31.83;50.78;100257.92;117287;1184;23638;-67
2021/09/17 10:38:40;;;;;;;8.00;3.20;;;;;;;31.82;50.68;100257.79;117315;1182;23570;-70
2021/09/17 10:41:09;;;;;;;7.30;3.10;;;;;;;31.87;50.70;100256.96;117455;1185;23442;-68
2021/09/17 10:43:49;;;;;;;6.10;3.50;;;;;;;31.89;50.64;100258.71;117326;1184;21857;-69
2021/09/17 10:46:19;;;;;;;7.50;3.10;;;;;;;31.88;50.53;100257.35;117390;1185;22804;-71
2021/09/17 10:48:52;;;;;;;12.70;3.90;;;;;;;31.89;50.58;100251.09;117304;1185;22735;-82
2021/09/17 10:51:36;;;;;;;8.60;4.20;;;;;;;31.88;50.58;100250.69;117320;1183;21867;-68
2021/09/17 10:54:07;;;;;;;6.60;3.10;;;;;;;31.86;50.40;100244.20;117403;1185;21873;-70
2021/09/17 10:56:48;;;;;;;13.00;3.70;;;;;;;31.76;50.29;100232.88;117319;1185;22198;-67
2021/09/17 10:59:24;;;;;;;10.00;3.00;;;;;;;31.74;50.47;100235.51;117390;1185;21845;-71
2021/09/17 11:01:55;;;;;;;10.00;3.30;;;;;;;31.78;50.46;100234.85;117281;1185;21867;-67
2021/09/17 11:04:24;;;;;;;;;;;;;;;31.77;50.46;100231.03;117348;1185;22973;-68
2021/09/17 11:06:54;;;;;;;19.10;4.10;;;;;;;31.78;50.39;100230.46;117406;1185;21927;-69
2021/09/17 11:10:01;;;;;;;8.90;3.50;;;;;;;31.87;50.25;100227.38;117410;1184;21856;-67
2021/09/17 11:12:35;;;;;;;10.20;3.50;;;;;;;31.90;50.22;100222.16;116813;1189;22730;-68
2021/09/17 11:15:14;;;;;;;23.00;15.20;;;;;;;31.97;50.14;100212.23;116806;1187;23280;-70
2021/09/17 11:17:56;;;;;;;8.20;5.30;;;;;;;31.99;50.02;100212.75;117203;1184;23557;-70
2021/09/17 11:20:30;;;;;;;11.80;4.50;;;;;;;31.97;50.05;100208.55;117335;1185;22646;-71
2021/09/17 11:23:01;;;;;;;24.00;4.80;;;;;;;31.95;50.11;100208.41;117407;1184;23638;-67
2021/09/17 11:25:37;;;;;;;18.40;4.40;;;;;;;31.88;49.93;100206.09;117375;1188;21864;-68
2021/09/17 11:28:07;;;;;;;8.20;3.40;;;;;;;31.81;50.05;100207.02;117349;1185;21857;-68
2021/09/17 11:30:36;;;;;;;5.80;3.50;;;;;;;31.82;50.13;100209.05;117350;1176;23477;-67
2021/09/17 11:33:23;;;;;;;8.50;3.80;;;;;;;31.85;50.25;100212.36;117352;1185;23548;-66